sensor_id;sensor_type;location;lat;lon;timestamp;pressure;altitude;pressure_sealevel;temperature;humidity
41334;BME280;27078;46.428;6.256;2023-03-01T00:01:48;96809.72;;;0.81;100.00
41334;BME280;27078;46.428;6.256;2023-03-01T00:04:13;96798.41;;;0.82;100.00
41334;BME280;27078;46.428;6.256;2023-03-01T00:06:38;96814.50;;;0.90;100.00
41334;BME280;27078;46.428;6.256;2023-03-01T00:09:04;96811.59;;;0.98;100.00
41334;BME280;27078;46.428;6.256;2023-03-01T00:11:31;96824.88;;;0.92;100.00
41334;BME280;27078;46.428;6.256;2023-03-01T00:14:00;96820.03;;;0.82;100.00
41334;BME280;27078;46.428;6.256;2023-03-01T00:16:35;96810.63;;;0.80;100.00
41334;BME280;27078;46.428;6.256;2023-03-01T00:19:01;96811.56;;;0.79;100.00
41334;BME280;27078;46.428;6.256;2023-03-01T00:21:27;96811.41;;;0.82;100.00
41334;BME280;27078;46.428;6.256;2023-03-01T00:23:54;96808.69;;;0.85;100.00
41334;BME280;27078;46.428;6.256;2023-03-01T00:26:20;96802.06;;;0.78;100.00
41334;BME280;27078;46.428;6.256;2023-03-01T00:28:46;96802.63;;;0.85;100.00
41334;BME280;27078;46.428;6.256;2023-03-01T00:31:15;96798.13;;;0.88;100.00
41334;BME280;27078;46.428;6.256;2023-03-01T00:33:42;96807.13;;;0.81;100.00
41334;BME280;27078;46.428;6.256;2023-03-01T00:36:08;96801.78;;;0.84;100.00
41334;BME280;27078;46.428;6.256;2023-03-01T00:38:36;96791.25;;;0.87;100.00
41334;BME280;27078;46.428;6.256;2023-03-01T00:41:09;96798.56;;;0.79;100.00
41334;BME280;27078;46.428;6.256;2023-03-01T00:43:35;96799.59;;;0.75;100.00
41334;BME280;27078;46.428;6.256;2023-03-01T00:46:06;96798.66;;;0.76;100.00
41334;BME280;27078;46.428;6.256;2023-03-01T00:48:32;96797.97;;;0.72;100.00
41334;BME280;27078;46.428;6.256;2023-03-01T00:50:57;96790.19;;;0.72;100.00
41334;BME280;27078;46.428;6.256;2023-03-01T00:53:28;96786.19;;;0.84;100.00
41334;BME280;27078;46.428;6.256;2023-03-01T00:55:56;96796.47;;;0.87;100.00
41334;BME280;27078;46.428;6.256;2023-03-01T00:58:22;96791.09;;;0.90;100.00
41334;BME280;27078;46.428;6.256;2023-03-01T01:00:47;96794.75;;;0.86;100.00
41334;BME280;27078;46.428;6.256;2023-03-01T01:03:12;96806.41;;;0.77;100.00
41334;BME280;27078;46.428;6.256;2023-03-01T01:05:38;96785.41;;;0.82;100.00
41334;BME280;27078;46.428;6.256;2023-03-01T01:08:03;96798.66;;;0.76;100.00
41334;BME280;27078;46.428;6.256;2023-03-01T01:10:28;96801.00;;;0.82;100.00
41334;BME280;27078;46.428;6.256;2023-03-01T01:12:54;96792.41;;;0.80;100.00
41334;BME280;27078;46.428;6.256;2023-03-01T01:15:19;96797.56;;;0.81;100.00
41334;BME280;27078;46.428;6.256;2023-03-01T01:17:44;96782.81;;;0.82;100.00
41334;BME280;27078;46.428;6.256;2023-03-01T01:20:10;96787.94;;;0.84;100.00
41334;BME280;27078;46.428;6.256;2023-03-01T01:22:36;96785.34;;;0.84;100.00
41334;BME280;27078;46.428;6.256;2023-03-01T01:25:01;96787.88;;;0.85;100.00
41334;BME280;27078;46.428;6.256;2023-03-01T01:27:26;96784.34;;;0.86;100.00
41334;BME280;27078;46.428;6.256;2023-03-01T01:29:54;96797.00;;;0.75;100.00
41334;BME280;27078;46.428;6.256;2023-03-01T01:32:20;96779.50;;;0.78;100.00
41334;BME280;27078;46.428;6.256;2023-03-01T01:34:45;96770.56;;;0.84;100.00
41334;BME280;27078;46.428;6.256;2023-03-01T01:37:11;96774.44;;;0.94;100.00
41334;BME280;27078;46.428;6.256;2023-03-01T01:39:37;96777.75;;;0.79;100.00
41334;BME280;27078;46.428;6.256;2023-03-01T01:42:02;96765.53;;;0.81;100.00
41334;BME280;27078;46.428;6.256;2023-03-01T01:44:29;96771.00;;;0.75;100.00
41334;BME280;27078;46.428;6.256;2023-03-01T01:47:18;96766.50;;;0.78;100.00
41334;BME280;27078;46.428;6.256;2023-03-01T01:49:55;96769.59;;;0.87;100.00
41334;BME280;27078;46.428;6.256;2023-03-01T01:52:25;96762.22;;;0.77;100.00
41334;BME280;27078;46.428;6.256;2023-03-01T01:55:27;96759.53;;;0.79;100.00
41334;BME280;27078;46.428;6.256;2023-03-01T01:57:55;96755.91;;;0.83;100.00
41334;BME280;27078;46.428;6.256;2023-03-01T02:00:26;96750.53;;;0.86;100.00
41334;BME280;27078;46.428;6.256;2023-03-01T02:02:56;96754.19;;;0.82;100.00
41334;BME280;27078;46.428;6.256;2023-03-01T02:05:31;96751.69;;;0.80;100.00
41334;BME280;27078;46.428;6.256;2023-03-01T02:08:00;96742.59;;;0.70;100.00
41334;BME280;27078;46.428;6.256;2023-03-01T02:10:27;96738.50;;;0.65;100.00
41334;BME280;27078;46.428;6.256;2023-03-01T02:12:53;96731.34;;;0.70;100.00
41334;BME280;27078;46.428;6.256;2023-03-01T02:15:19;96736.53;;;0.70;100.00
41334;BME280;27078;46.428;6.256;2023-03-01T02:17:44;96736.63;;;0.87;100.00
41334;BME280;27078;46.428;6.256;2023-03-01T02:22:45;96716.38;;;1.13;100.00
41334;BME280;27078;46.428;6.256;2023-03-01T02:28:10;96719.59;;;0.80;100.00
41334;BME280;27078;46.428;6.256;2023-03-01T02:30:37;96721.09;;;0.86;100.00
41334;BME280;27078;46.428;6.256;2023-03-01T02:33:24;96726.34;;;0.84;100.00
41334;BME280;27078;46.428;6.256;2023-03-01T02:35:50;96720.66;;;0.95;100.00
41334;BME280;27078;46.428;6.256;2023-03-01T02:38:17;96730.38;;;0.91;100.00
41334;BME280;27078;46.428;6.256;2023-03-01T02:40:42;96722.06;;;0.64;100.00
41334;BME280;27078;46.428;6.256;2023-03-01T02:43:10;96708.16;;;0.65;100.00
41334;BME280;27078;46.428;6.256;2023-03-01T02:45:37;96708.09;;;0.86;100.00
41334;BME280;27078;46.428;6.256;2023-03-01T02:48:02;96708.03;;;0.87;100.00
41334;BME280;27078;46.428;6.256;2023-03-01T02:53:23;96713.50;;;0.81;100.00
41334;BME280;27078;46.428;6.256;2023-03-01T02:55:52;96693.09;;;0.72;100.00
41334;BME280;27078;46.428;6.256;2023-03-01T02:58:18;96690.72;;;0.67;100.00
41334;BME280;27078;46.428;6.256;2023-03-01T03:00:44;96699.34;;;0.68;100.00
41334;BME280;27078;46.428;6.256;2023-03-01T03:03:13;96691.44;;;0.71;100.00
41334;BME280;27078;46.428;6.256;2023-03-01T03:05:40;96686.56;;;0.82;100.00
41334;BME280;27078;46.428;6.256;2023-03-01T03:08:06;96694.03;;;0.71;100.00
41334;BME280;27078;46.428;6.256;2023-03-01T03:10:36;96691.00;;;0.61;100.00
41334;BME280;27078;46.428;6.256;2023-03-01T03:13:13;96679.81;;;0.59;100.00
41334;BME280;27078;46.428;6.256;2023-03-01T03:15:39;96682.72;;;0.72;100.00
41334;BME280;27078;46.428;6.256;2023-03-01T03:18:08;96685.22;;;0.54;100.00
41334;BME280;27078;46.428;6.256;2023-03-01T03:20:34;96685.94;;;0.58;100.00
41334;BME280;27078;46.428;6.256;2023-03-01T03:23:00;96681.84;;;0.52;100.00
41334;BME280;27078;46.428;6.256;2023-03-01T03:25:27;96664.59;;;0.51;100.00
41334;BME280;27078;46.428;6.256;2023-03-01T03:27:53;96672.00;;;0.40;100.00
41334;BME280;27078;46.428;6.256;2023-03-01T03:30:30;96671.63;;;0.49;100.00
41334;BME280;27078;46.428;6.256;2023-03-01T03:32:56;96665.22;;;0.56;100.00
41334;BME280;27078;46.428;6.256;2023-03-01T03:37:50;96664.03;;;0.45;100.00
41334;BME280;27078;46.428;6.256;2023-03-01T03:42:55;96662.97;;;0.49;100.00
41334;BME280;27078;46.428;6.256;2023-03-01T03:45:21;96661.75;;;0.37;100.00
41334;BME280;27078;46.428;6.256;2023-03-01T03:47:47;96664.09;;;0.43;100.00
41334;BME280;27078;46.428;6.256;2023-03-01T03:50:14;96657.06;;;0.45;100.00
41334;BME280;27078;46.428;6.256;2023-03-01T03:52:39;96662.19;;;0.47;100.00
41334;BME280;27078;46.428;6.256;2023-03-01T03:55:06;96644.19;;;0.61;100.00
41334;BME280;27078;46.428;6.256;2023-03-01T03:57:39;96656.69;;;0.53;100.00
41334;BME280;27078;46.428;6.256;2023-03-01T04:00:11;96663.81;;;0.49;100.00
41334;BME280;27078;46.428;6.256;2023-03-01T04:02:40;96660.28;;;0.50;100.00
41334;BME280;27078;46.428;6.256;2023-03-01T04:05:07;96654.31;;;0.48;100.00
41334;BME280;27078;46.428;6.256;2023-03-01T04:07:34;96654.03;;;0.54;100.00
41334;BME280;27078;46.428;6.256;2023-03-01T04:10:00;96652.19;;;0.37;100.00
41334;BME280;27078;46.428;6.256;2023-03-01T04:12:25;96647.00;;;0.37;100.00
41334;BME280;27078;46.428;6.256;2023-03-01T04:14:50;96652.75;;;0.44;100.00
41334;BME280;27078;46.428;6.256;2023-03-01T04:17:16;96656.63;;;0.35;100.00
41334;BME280;27078;46.428;6.256;2023-03-01T04:19:41;96656.59;;;0.56;100.00
41334;BME280;27078;46.428;6.256;2023-03-01T04:22:09;96656.13;;;0.46;100.00
41334;BME280;27078;46.428;6.256;2023-03-01T04:24:36;96653.69;;;0.43;100.00
41334;BME280;27078;46.428;6.256;2023-03-01T04:27:02;96647.72;;;0.41;100.00
41334;BME280;27078;46.428;6.256;2023-03-01T04:29:27;96642.38;;;0.44;100.00
41334;BME280;27078;46.428;6.256;2023-03-01T04:31:53;96646.19;;;0.56;100.00
41334;BME280;27078;46.428;6.256;2023-03-01T04:34:18;96638.59;;;0.51;100.00
41334;BME280;27078;46.428;6.256;2023-03-01T04:36:44;96647.00;;;0.56;100.00
41334;BME280;27078;46.428;6.256;2023-03-01T04:39:09;96646.13;;;0.57;100.00
41334;BME280;27078;46.428;6.256;2023-03-01T04:41:37;96635.78;;;0.37;100.00
41334;BME280;27078;46.428;6.256;2023-03-01T04:44:06;96640.41;;;0.30;100.00
41334;BME280;27078;46.428;6.256;2023-03-01T04:46:32;96644.88;;;0.27;100.00
41334;BME280;27078;46.428;6.256;2023-03-01T04:48:57;96638.28;;;0.19;100.00
41334;BME280;27078;46.428;6.256;2023-03-01T04:51:22;96631.97;;;0.25;100.00
41334;BME280;27078;46.428;6.256;2023-03-01T04:53:48;96630.34;;;0.23;100.00
41334;BME280;27078;46.428;6.256;2023-03-01T04:56:14;96635.53;;;0.23;100.00
41334;BME280;27078;46.428;6.256;2023-03-01T04:58:39;96633.09;;;0.19;100.00
41334;BME280;27078;46.428;6.256;2023-03-01T05:01:10;96632.88;;;0.24;100.00
41334;BME280;27078;46.428;6.256;2023-03-01T05:03:41;96635.47;;;0.24;100.00
41334;BME280;27078;46.428;6.256;2023-03-01T05:06:06;96626.97;;;0.20;100.00
41334;BME280;27078;46.428;6.256;2023-03-01T05:08:32;96628.75;;;0.20;100.00
41334;BME280;27078;46.428;6.256;2023-03-01T05:10:59;96631.28;;;0.22;100.00
41334;BME280;27078;46.428;6.256;2023-03-01T05:13:24;96625.81;;;0.28;100.00
41334;BME280;27078;46.428;6.256;2023-03-01T05:15:55;96626.59;;;0.30;100.00
41334;BME280;27078;46.428;6.256;2023-03-01T05:18:21;96631.00;;;0.28;100.00
41334;BME280;27078;46.428;6.256;2023-03-01T05:20:54;96625.81;;;0.28;100.00
41334;BME280;27078;46.428;6.256;2023-03-01T05:23:21;96631.84;;;0.28;100.00
41334;BME280;27078;46.428;6.256;2023-03-01T05:25:47;96627.47;;;0.29;100.00
41334;BME280;27078;46.428;6.256;2023-03-01T05:28:13;96626.69;;;0.27;100.00
41334;BME280;27078;46.428;6.256;2023-03-01T05:30:38;96613.97;;;0.20;100.00
41334;BME280;27078;46.428;6.256;2023-03-01T05:33:04;96629.25;;;0.28;100.00
41334;BME280;27078;46.428;6.256;2023-03-01T05:35:32;96632.88;;;0.24;100.00
41334;BME280;27078;46.428;6.256;2023-03-01T05:37:58;96625.22;;;0.21;100.00
41334;BME280;27078;46.428;6.256;2023-03-01T05:40:23;96623.47;;;0.22;100.00
41334;BME280;27078;46.428;6.256;2023-03-01T05:42:53;96621.44;;;0.28;100.00
41334;BME280;27078;46.428;6.256;2023-03-01T05:45:20;96631.13;;;0.25;100.00
41334;BME280;27078;46.428;6.256;2023-03-01T05:47:47;96618.06;;;0.26;100.00
41334;BME280;27078;46.428;6.256;2023-03-01T05:50:21;96622.44;;;0.26;100.00
41334;BME280;27078;46.428;6.256;2023-03-01T05:52:49;96618.28;;;0.22;100.00
41334;BME280;27078;46.428;6.256;2023-03-01T05:55:20;96630.41;;;0.21;100.00
41334;BME280;27078;46.428;6.256;2023-03-01T05:57:45;96622.72;;;0.19;100.00
41334;BME280;27078;46.428;6.256;2023-03-01T06:00:12;96615.81;;;0.18;100.00
41334;BME280;27078;46.428;6.256;2023-03-01T06:02:39;96609.84;;;0.16;100.00
41334;BME280;27078;46.428;6.256;2023-03-01T06:05:06;96620.31;;;0.15;100.00
41334;BME280;27078;46.428;6.256;2023-03-01T06:07:32;96626.47;;;0.12;100.00
41334;BME280;27078;46.428;6.256;2023-03-01T06:09:57;96628.78;;;0.18;100.00
41334;BME280;27078;46.428;6.256;2023-03-01T06:12:23;96626.47;;;0.12;100.00
41334;BME280;27078;46.428;6.256;2023-03-01T06:14:48;96633.38;;;0.13;100.00
41334;BME280;27078;46.428;6.256;2023-03-01T06:17:14;96631.53;;;0.15;100.00
41334;BME280;27078;46.428;6.256;2023-03-01T06:19:39;96635.91;;;0.15;100.00
41334;BME280;27078;46.428;6.256;2023-03-01T06:22:04;96634.78;;;0.20;100.00
41334;BME280;27078;46.428;6.256;2023-03-01T06:24:30;96632.22;;;0.19;100.00
41334;BME280;27078;46.428;6.256;2023-03-01T06:26:55;96622.13;;;0.13;100.00
41334;BME280;27078;46.428;6.256;2023-03-01T06:29:21;96626.47;;;0.12;100.00
41334;BME280;27078;46.428;6.256;2023-03-01T06:31:47;96623.81;;;0.14;100.00
41334;BME280;27078;46.428;6.256;2023-03-01T06:34:13;96622.63;;;0.21;100.00
41334;BME280;27078;46.428;6.256;2023-03-01T06:36:39;96620.50;;;0.29;100.00
41334;BME280;27078;46.428;6.256;2023-03-01T06:39:05;96617.34;;;0.23;100.00
41334;BME280;27078;46.428;6.256;2023-03-01T06:41:31;96615.53;;;0.25;100.00
41334;BME280;27078;46.428;6.256;2023-03-01T06:43:56;96614.75;;;0.23;100.00
41334;BME280;27078;46.428;6.256;2023-03-01T06:46:21;96610.50;;;0.22;100.00
41334;BME280;27078;46.428;6.256;2023-03-01T06:48:47;96617.63;;;0.16;100.00
41334;BME280;27078;46.428;6.256;2023-03-01T06:51:12;96616.66;;;0.19;100.00
41334;BME280;27078;46.428;6.256;2023-03-01T06:53:38;96624.38;;;0.20;100.00
41334;BME280;27078;46.428;6.256;2023-03-01T06:56:03;96604.63;;;0.16;100.00
41334;BME280;27078;46.428;6.256;2023-03-01T06:58:29;96615.69;;;0.22;100.00
41334;BME280;27078;46.428;6.256;2023-03-01T07:00:54;96606.25;;;0.19;100.00
41334;BME280;27078;46.428;6.256;2023-03-01T07:03:19;96603.59;;;0.20;100.00
41334;BME280;27078;46.428;6.256;2023-03-01T07:05:45;96610.91;;;0.31;100.00
41334;BME280;27078;46.428;6.256;2023-03-01T07:08:10;96601.66;;;0.26;100.00
41334;BME280;27078;46.428;6.256;2023-03-01T07:10:36;96609.16;;;0.32;100.00
41334;BME280;27078;46.428;6.256;2023-03-01T07:13:01;96607.41;;;0.32;100.00
41334;BME280;27078;46.428;6.256;2023-03-01T07:15:27;96603.38;;;0.44;100.00
41334;BME280;27078;46.428;6.256;2023-03-01T07:17:53;96600.78;;;0.44;100.00
41334;BME280;27078;46.428;6.256;2023-03-01T07:20:19;96600.44;;;0.52;100.00
41334;BME280;27078;46.428;6.256;2023-03-01T07:22:49;96604.03;;;0.49;100.00
41334;BME280;27078;46.428;6.256;2023-03-01T07:25:15;96606.53;;;0.51;100.00
41334;BME280;27078;46.428;6.256;2023-03-01T07:27:40;96601.28;;;0.52;100.00
41334;BME280;27078;46.428;6.256;2023-03-01T07:30:06;96605.56;;;0.53;100.00
41334;BME280;27078;46.428;6.256;2023-03-01T07:32:31;96605.56;;;0.53;100.00
41334;BME280;27078;46.428;6.256;2023-03-01T07:34:57;96607.41;;;0.51;100.00
41334;BME280;27078;46.428;6.256;2023-03-01T07:37:22;96612.50;;;0.53;100.00
41334;BME280;27078;46.428;6.256;2023-03-01T07:39:47;96595.97;;;0.55;100.00
41334;BME280;27078;46.428;6.256;2023-03-01T07:42:13;96606.34;;;0.55;100.00
41334;BME280;27078;46.428;6.256;2023-03-01T07:44:38;96604.44;;;0.59;100.00
41334;BME280;27078;46.428;6.256;2023-03-01T07:47:04;96599.94;;;0.63;100.00
41334;BME280;27078;46.428;6.256;2023-03-01T07:49:29;96605.06;;;0.64;100.00
41334;BME280;27078;46.428;6.256;2023-03-01T07:51:55;96598.28;;;0.62;100.00
41334;BME280;27078;46.428;6.256;2023-03-01T07:54:21;96602.19;;;0.70;100.00
41334;BME280;27078;46.428;6.256;2023-03-01T07:56:46;96585.81;;;0.68;100.00
41334;BME280;27078;46.428;6.256;2023-03-01T07:59:12;96589.97;;;0.72;100.00
41334;BME280;27078;46.428;6.256;2023-03-01T08:01:37;96583.91;;;0.72;100.00
41334;BME280;27078;46.428;6.256;2023-03-01T08:04:03;96586.31;;;0.76;100.00
41334;BME280;27078;46.428;6.256;2023-03-01T08:06:33;96587.44;;;0.71;100.00
41334;BME280;27078;46.428;6.256;2023-03-01T08:08:59;96585.16;;;0.82;100.00
41334;BME280;27078;46.428;6.256;2023-03-01T08:11:24;96575.28;;;0.89;100.00
41334;BME280;27078;46.428;6.256;2023-03-01T08:13:50;96577.69;;;0.93;100.00
41334;BME280;27078;46.428;6.256;2023-03-01T08:16:15;96578.25;;;1.00;100.00
41334;BME280;27078;46.428;6.256;2023-03-01T08:18:42;96572.81;;;1.05;100.00
41334;BME280;27078;46.428;6.256;2023-03-01T08:21:14;96568.66;;;1.00;100.00
41334;BME280;27078;46.428;6.256;2023-03-01T08:23:39;96575.41;;;1.05;100.00
41334;BME280;27078;46.428;6.256;2023-03-01T08:26:11;96576.53;;;1.16;100.00
41334;BME280;27078;46.428;6.256;2023-03-01T08:28:38;96571.97;;;1.21;100.00
41334;BME280;27078;46.428;6.256;2023-03-01T08:31:13;96576.47;;;1.18;100.00
41334;BME280;27078;46.428;6.256;2023-03-01T08:33:39;96576.03;;;1.27;100.00
41334;BME280;27078;46.428;6.256;2023-03-01T08:36:05;96578.09;;;1.20;100.00
41334;BME280;27078;46.428;6.256;2023-03-01T08:38:32;96578.78;;;1.24;100.00
41334;BME280;27078;46.428;6.256;2023-03-01T08:41:00;96577.72;;;1.28;100.00
41334;BME280;27078;46.428;6.256;2023-03-01T08:43:25;96572.22;;;1.34;100.00
41334;BME280;27078;46.428;6.256;2023-03-01T08:45:50;96584.84;;;1.42;100.00
41334;BME280;27078;46.428;6.256;2023-03-01T08:48:16;96573.13;;;1.51;100.00
41334;BME280;27078;46.428;6.256;2023-03-01T08:50:41;96562.03;;;1.47;100.00
41334;BME280;27078;46.428;6.256;2023-03-01T08:53:06;96574.19;;;1.47;100.00
41334;BME280;27078;46.428;6.256;2023-03-01T08:55:31;96577.16;;;1.56;100.00
41334;BME280;27078;46.428;6.256;2023-03-01T08:57:57;96571.28;;;1.53;100.00
41334;BME280;27078;46.428;6.256;2023-03-01T09:00:24;96574.56;;;1.56;100.00
41334;BME280;27078;46.428;6.256;2023-03-01T09:02:50;96572.34;;;1.66;100.00
41334;BME280;27078;46.428;6.256;2023-03-01T09:05:15;96559.56;;;1.61;100.00
41334;BME280;27078;46.428;6.256;2023-03-01T09:07:40;96573.34;;;1.63;100.00
41334;BME280;27078;46.428;6.256;2023-03-01T09:10:06;96570.03;;;1.60;100.00
41334;BME280;27078;46.428;6.256;2023-03-01T09:12:32;96562.94;;;1.63;100.00
41334;BME280;27078;46.428;6.256;2023-03-01T09:14:57;96558.78;;;1.59;100.00
41334;BME280;27078;46.428;6.256;2023-03-01T09:17:22;96560.41;;;1.62;100.00
41334;BME280;27078;46.428;6.256;2023-03-01T09:19:48;96558.88;;;1.58;100.00
41334;BME280;27078;46.428;6.256;2023-03-01T09:22:14;96556.88;;;1.63;100.00
41334;BME280;27078;46.428;6.256;2023-03-01T09:24:39;96560.78;;;1.54;100.00
41334;BME280;27078;46.428;6.256;2023-03-01T09:27:05;96557.63;;;1.65;100.00
41334;BME280;27078;46.428;6.256;2023-03-01T09:29:34;96553.94;;;1.87;100.00
41334;BME280;27078;46.428;6.256;2023-03-01T09:32:00;96564.19;;;1.90;98.69
41334;BME280;27078;46.428;6.256;2023-03-01T09:34:25;96572.44;;;1.98;99.58
41334;BME280;27078;46.428;6.256;2023-03-01T09:36:51;96571.94;;;2.07;100.00
41334;BME280;27078;46.428;6.256;2023-03-01T09:39:16;96565.88;;;2.07;100.00
41334;BME280;27078;46.428;6.256;2023-03-01T09:46:51;96564.41;;;2.18;100.00
41334;BME280;27078;46.428;6.256;2023-03-01T09:49:19;96567.69;;;2.22;98.38
41334;BME280;27078;46.428;6.256;2023-03-01T09:55:10;96557.34;;;2.20;97.67
41334;BME280;27078;46.428;6.256;2023-03-01T09:57:43;96549.16;;;2.11;97.89
41334;BME280;27078;46.428;6.256;2023-03-01T10:00:20;96559.03;;;2.21;97.72
41334;BME280;27078;46.428;6.256;2023-03-01T10:03:16;96552.03;;;2.22;95.85
41334;BME280;27078;46.428;6.256;2023-03-01T10:09:00;96548.28;;;2.28;95.89
41334;BME280;27078;46.428;6.256;2023-03-01T10:11:52;96551.81;;;2.27;96.76
41334;BME280;27078;46.428;6.256;2023-03-01T10:22:38;96540.78;;;2.53;95.00
41334;BME280;27078;46.428;6.256;2023-03-01T10:25:03;96534.66;;;2.54;92.34
41334;BME280;27078;46.428;6.256;2023-03-01T10:27:50;96530.88;;;2.44;93.29
41334;BME280;27078;46.428;6.256;2023-03-01T10:30:20;96527.59;;;2.56;94.95
41334;BME280;27078;46.428;6.256;2023-03-01T10:32:48;96529.44;;;2.54;93.70
41334;BME280;27078;46.428;6.256;2023-03-01T10:35:19;96528.75;;;2.67;94.23
41334;BME280;27078;46.428;6.256;2023-03-01T10:37:57;96530.09;;;2.58;92.68
41334;BME280;27078;46.428;6.256;2023-03-01T10:40:22;96529.75;;;2.64;94.18
41334;BME280;27078;46.428;6.256;2023-03-01T10:42:48;96528.16;;;2.77;91.86
41334;BME280;27078;46.428;6.256;2023-03-01T10:48:05;96516.97;;;2.75;93.88
41334;BME280;27078;46.428;6.256;2023-03-01T10:50:31;96532.09;;;2.84;93.22
41334;BME280;27078;46.428;6.256;2023-03-01T10:53:04;96526.69;;;2.88;93.43
41334;BME280;27078;46.428;6.256;2023-03-01T10:55:38;96520.63;;;2.87;92.67
41334;BME280;27078;46.428;6.256;2023-03-01T10:58:21;96529.97;;;2.91;91.18
41334;BME280;27078;46.428;6.256;2023-03-01T11:03:15;96515.00;;;2.79;92.12
41334;BME280;27078;46.428;6.256;2023-03-01T11:06:03;96512.53;;;3.08;93.71
41334;BME280;27078;46.428;6.256;2023-03-01T11:08:44;96506.75;;;3.17;90.60
41334;BME280;27078;46.428;6.256;2023-03-01T11:11:32;96520.03;;;3.28;90.88
41334;BME280;27078;46.428;6.256;2023-03-01T11:14:06;96506.72;;;3.33;88.75
41334;BME280;27078;46.428;6.256;2023-03-01T11:16:36;96510.66;;;3.10;88.16
41334;BME280;27078;46.428;6.256;2023-03-01T11:21:35;96496.63;;;3.26;86.92
41334;BME280;27078;46.428;6.256;2023-03-01T11:24:03;96495.25;;;3.35;89.04
41334;BME280;27078;46.428;6.256;2023-03-01T11:26:34;96492.72;;;3.34;84.82
41334;BME280;27078;46.428;6.256;2023-03-01T11:29:05;96485.56;;;3.52;86.42
41334;BME280;27078;46.428;6.256;2023-03-01T11:31:33;96493.09;;;3.42;83.58
41334;BME280;27078;46.428;6.256;2023-03-01T11:34:05;96494.69;;;3.44;85.12
41334;BME280;27078;46.428;6.256;2023-03-01T11:36:40;96493.66;;;3.47;86.44
41334;BME280;27078;46.428;6.256;2023-03-01T11:42:22;96489.88;;;3.67;85.47
41334;BME280;27078;46.428;6.256;2023-03-01T11:44:55;96489.28;;;3.76;83.31
41334;BME280;27078;46.428;6.256;2023-03-01T11:47:30;96472.78;;;3.76;83.14
41334;BME280;27078;46.428;6.256;2023-03-01T12:01:03;96472.69;;;3.92;80.67
41334;BME280;27078;46.428;6.256;2023-03-01T12:09:11;96453.22;;;4.24;80.66
41334;BME280;27078;46.428;6.256;2023-03-01T12:11:58;96445.88;;;4.44;80.72
41334;BME280;27078;46.428;6.256;2023-03-01T12:27:22;96421.47;;;5.10;77.54
41334;BME280;27078;46.428;6.256;2023-03-01T12:30:23;96419.75;;;4.97;75.08
41334;BME280;27078;46.428;6.256;2023-03-01T12:38:18;96412.69;;;4.72;76.91
41334;BME280;27078;46.428;6.256;2023-03-01T12:49:14;96424.59;;;4.63;77.57
41334;BME280;27078;46.428;6.256;2023-03-01T12:51:44;96416.66;;;4.37;77.73
41334;BME280;27078;46.428;6.256;2023-03-01T12:54:27;96424.91;;;4.31;77.84
41334;BME280;27078;46.428;6.256;2023-03-01T12:56:54;96429.97;;;4.20;79.92
41334;BME280;27078;46.428;6.256;2023-03-01T12:59:33;96417.25;;;4.28;78.24
41334;BME280;27078;46.428;6.256;2023-03-01T13:02:32;96416.53;;;4.53;79.65
41334;BME280;27078;46.428;6.256;2023-03-01T13:05:19;96403.56;;;4.64;80.22
41334;BME280;27078;46.428;6.256;2023-03-01T13:08:01;96403.56;;;4.64;75.88
41334;BME280;27078;46.428;6.256;2023-03-01T13:10:59;96402.56;;;4.80;78.11
41334;BME280;27078;46.428;6.256;2023-03-01T13:13:27;96392.50;;;4.86;78.30
41334;BME280;27078;46.428;6.256;2023-03-01T13:15:54;96383.09;;;4.97;76.98
41334;BME280;27078;46.428;6.256;2023-03-01T13:20:49;96381.44;;;5.21;76.49
41334;BME280;27078;46.428;6.256;2023-03-01T13:28:48;96394.53;;;5.08;76.22
41334;BME280;27078;46.428;6.256;2023-03-01T13:46:47;96376.19;;;4.83;80.12
41334;BME280;27078;46.428;6.256;2023-03-01T13:49:16;96384.13;;;4.81;78.44
41334;BME280;27078;46.428;6.256;2023-03-01T13:51:46;96383.09;;;4.84;77.53
41334;BME280;27078;46.428;6.256;2023-03-01T13:54:14;96388.13;;;4.87;77.96
41334;BME280;27078;46.428;6.256;2023-03-01T13:56:40;96386.25;;;4.89;78.82
41334;BME280;27078;46.428;6.256;2023-03-01T13:59:13;96392.63;;;4.85;75.60
41334;BME280;27078;46.428;6.256;2023-03-01T14:01:40;96390.19;;;4.82;79.05
41334;BME280;27078;46.428;6.256;2023-03-01T14:04:26;96384.53;;;4.75;79.06
41334;BME280;27078;46.428;6.256;2023-03-01T14:07:11;96390.59;;;4.76;79.65
41334;BME280;27078;46.428;6.256;2023-03-01T14:09:42;96382.34;;;4.82;79.58
41334;BME280;27078;46.428;6.256;2023-03-01T14:15:01;96382.88;;;4.74;80.78
41334;BME280;27078;46.428;6.256;2023-03-01T14:17:41;96375.19;;;4.58;78.57
41334;BME280;27078;46.428;6.256;2023-03-01T14:20:12;96382.56;;;4.39;79.89
41334;BME280;27078;46.428;6.256;2023-03-01T14:22:41;96379.63;;;4.31;81.21
41334;BME280;27078;46.428;6.256;2023-03-01T14:25:23;96383.75;;;4.20;82.77
41334;BME280;27078;46.428;6.256;2023-03-01T14:28:02;96378.75;;;4.17;84.67
41334;BME280;27078;46.428;6.256;2023-03-01T14:30:37;96376.69;;;4.08;84.61
41334;BME280;27078;46.428;6.256;2023-03-01T14:33:15;96383.34;;;3.99;85.62
41334;BME280;27078;46.428;6.256;2023-03-01T14:35:42;96380.50;;;3.90;86.64
41334;BME280;27078;46.428;6.256;2023-03-01T14:38:20;96377.69;;;3.78;85.70
41334;BME280;27078;46.428;6.256;2023-03-01T14:40:51;96381.06;;;3.80;87.41
41334;BME280;27078;46.428;6.256;2023-03-01T14:43:22;96377.59;;;3.80;85.83
41334;BME280;27078;46.428;6.256;2023-03-01T14:45:50;96367.16;;;3.80;88.74
41334;BME280;27078;46.428;6.256;2023-03-01T14:48:20;96376.13;;;3.76;86.77
41334;BME280;27078;46.428;6.256;2023-03-01T14:50:46;96382.03;;;3.65;88.17
41334;BME280;27078;46.428;6.256;2023-03-01T14:53:18;96376.41;;;3.71;88.53
41334;BME280;27078;46.428;6.256;2023-03-01T14:55:48;96376.97;;;3.62;87.14
41334;BME280;27078;46.428;6.256;2023-03-01T14:58:19;96372.69;;;3.75;90.23
41334;BME280;27078;46.428;6.256;2023-03-01T15:00:50;96367.91;;;3.82;93.12
41334;BME280;27078;46.428;6.256;2023-03-01T15:03:25;96371.91;;;3.87;89.05
41334;BME280;27078;46.428;6.256;2023-03-01T15:05:53;96366.94;;;3.97;88.74